地図

経路データ

SID SEASON NUMBER BASIN SUBBASIN NAME ISO_TIME NATURE LAT LON WMO_WIND WMO_PRES WMO_AGENCY TRACK_TYPE DIST2LAND LANDFALL IFLAG USA_AGENCY USA_ATCF_ID USA_LAT USA_LON USA_RECORD USA_STATUS USA_WIND USA_PRES USA_SSHS USA_R34_NE USA_R34_SE USA_R34_SW USA_R34_NW USA_R50_NE USA_R50_SE USA_R50_SW USA_R50_NW USA_R64_NE USA_R64_SE USA_R64_SW USA_R64_NW USA_POCI USA_ROCI USA_RMW USA_EYE TOKYO_LAT TOKYO_LON TOKYO_GRADE TOKYO_WIND TOKYO_PRES TOKYO_R50_DIR TOKYO_R50_LONG TOKYO_R50_SHORT TOKYO_R30_DIR TOKYO_R30_LONG TOKYO_R30_SHORT TOKYO_LAND CMA_LAT CMA_LON CMA_CAT CMA_WIND CMA_PRES HKO_LAT HKO_LON HKO_CAT HKO_WIND HKO_PRES NEWDELHI_LAT NEWDELHI_LON NEWDELHI_GRADE NEWDELHI_WIND NEWDELHI_PRES NEWDELHI_CI NEWDELHI_DP NEWDELHI_POCI REUNION_LAT REUNION_LON REUNION_TYPE REUNION_WIND REUNION_PRES REUNION_TNUM REUNION_CI REUNION_RMW REUNION_R34_NE REUNION_R34_SE REUNION_R34_SW REUNION_R34_NW REUNION_R50_NE REUNION_R50_SE REUNION_R50_SW REUNION_R50_NW REUNION_R64_NE REUNION_R64_SE REUNION_R64_SW REUNION_R64_NW BOM_LAT BOM_LON BOM_TYPE BOM_WIND BOM_PRES BOM_TNUM BOM_CI BOM_RMW BOM_R34_NE BOM_R34_SE BOM_R34_SW BOM_R34_NW BOM_R50_NE BOM_R50_SE BOM_R50_SW BOM_R50_NW BOM_R64_NE BOM_R64_SE BOM_R64_SW BOM_R64_NW BOM_ROCI BOM_POCI BOM_EYE BOM_POS_METHOD BOM_PRES_METHOD NADI_LAT NADI_LON NADI_CAT NADI_WIND NADI_PRES WELLINGTON_LAT WELLINGTON_LON WELLINGTON_WIND WELLINGTON_PRES DS824_LAT DS824_LON DS824_STAGE DS824_WIND DS824_PRES TD9636_LAT TD9636_LON TD9636_STAGE TD9636_WIND TD9636_PRES TD9635_LAT TD9635_LON TD9635_WIND TD9635_PRES TD9635_ROCI NEUMANN_LAT NEUMANN_LON NEUMANN_CLASS NEUMANN_WIND NEUMANN_PRES MLC_LAT MLC_LON MLC_CLASS MLC_WIND MLC_PRES USA_GUST BOM_GUST BOM_GUST_PER REUNION_GUST REUNION_GUST_PER USA_SEAHGT USA_SEARAD_NE USA_SEARAD_SE USA_SEARAD_SW USA_SEARAD_NW STORM_SPEED STORM_DIR
2013117S10155 2013 18 SP EA ZANE 2013-04-26 12:00:00 NR -10.0000 154.500 main 352 340 O_____________ jtwc_sh SH232013 -10.0000 154.500 DB 20 1007 -3 1009 150 45 5 118
2013117S10155 2013 18 SP EA ZANE 2013-04-26 15:00:00 NR -10.1251 154.737 main 340 330 P_____________ SH232013 -10.1251 154.737 DB 20 1007 -3 1008 155 37 5 127
2013117S10155 2013 18 SP EA ZANE 2013-04-26 18:00:00 NR -10.3000 154.900 main 337 337 O_____________ jtwc_sh SH232013 -10.3000 154.900 DB 20 1007 -3 1007 160 30 5 154
2013117S10155 2013 18 SP EA ZANE 2013-04-26 21:00:00 NR -10.5500 154.950 main 345 345 P_____________ SH232013 -10.5500 154.950 DB 20 1007 -3 1007 155 35 5 169
2013117S10155 2013 18 SP EA ZANE 2013-04-27 00:00:00 NR -10.8000 155.000 main 369 364 O_____________ jtwc_sh SH232013 -10.8000 155.000 DB 20 1007 -3 1008 150 40 5 148
2013117S10155 2013 18 SP EA ZANE 2013-04-27 03:00:00 NR -10.9651 155.215 main 373 367 P_____________ SH232013 -10.9651 155.215 DB 22 1005 -3 1007 155 40 5 128
2013117S10155 2013 18 SP EA ZANE 2013-04-27 06:00:00 TS -11.1000 155.400 main 370 370 O_____________ jtwc_sh SH232013 -11.1000 155.400 TD 25 1004 -1 1006 160 40 3 146
2013117S10155 2013 18 SP EA ZANE 2013-04-27 09:00:00 TS -11.2500 155.410 main 380 380 P_____________ SH232013 -11.2500 155.410 TD 25 1004 -1 1007 155 40 3 197
2013117S10155 2013 18 SP EA ZANE 2013-04-27 12:00:00 TS -11.4000 155.300 main 404 404 O_____________ jtwc_sh SH232013 -11.4000 155.300 TD 25 1004 -1 1008 150 40 4 223
2013117S10155 2013 18 SP EA ZANE 2013-04-27 15:00:00 TS -11.5500 155.123 main 435 435 P_____________ SH232013 -11.5500 155.123 TD 25 1004 -1 1007 155 40 5 232
2013117S10155 2013 18 SP EA ZANE 2013-04-27 18:00:00 TS -11.7000 154.900 main 456 456 O_____________ jtwc_sh SH232013 -11.7000 154.900 TD 25 1004 -1 1007 160 40 5 234
2013117S10155 2013 18 SP EA ZANE 2013-04-27 21:00:00 TS -11.8500 154.707 main 456 443 P_____________ SH232013 -11.8500 154.707 TD 25 1004 -1 1007 165 35 5 232
2013117S10155 2013 18 SP EA ZANE 2013-04-28 00:00:00 TS -12.0000 154.500 main 443 417 O_____________ jtwc_sh SH232013 -12.0000 154.500 TD 25 1004 -1 1007 170 30 6 236
2013117S10155 2013 18 SP EA ZANE 2013-04-28 03:00:00 TS -12.1575 154.235 main 421 407 P_____________ SH232013 -12.1575 154.235 TD 25 1004 -1 1007 175 30 6 238
2013117S10155 2013 18 SP EA ZANE 2013-04-28 06:00:00 TS -12.3000 154.000 main 407 402 O_____________ jtwc_sh SH232013 -12.3000 154.000 TD 25 1004 -1 1008 180 30 4 233
2013117S10155 2013 18 SP EA ZANE 2013-04-28 09:00:00 TS -12.4225 153.877 main 402 393 P_____________ SH232013 -12.4225 153.877 TD 25 1004 -1 1008 185 30 2 240
2013117S10155 2013 18 SP EA ZANE 2013-04-28 12:00:00 TS -12.4000 153.820 20 1004 bom main 393 384 O_____O_______ jtwc_sh SH232013 -12.5000 153.800 TD 25 1004 -1 1008 190 30 -12.0000 153.900 20 20 1004 1.00000 1.00000 3 9 45 45 2 283
2013117S10155 2013 18 SP EA ZANE 2013-04-28 15:00:00 TS -12.3892 153.726 main 384 374 P_____P_______ SH232013 -12.5150 153.707 TD 27 1002 -1 1008 185 35 -12.1375 153.762 20 20 1004 2 266
2013117S10155 2013 18 SP EA ZANE 2013-04-28 18:00:00 TS -12.4143 153.600 20 1004 bom main 374 363 O_____O_______ jtwc_sh SH232013 -12.5000 153.600 TD 30 1000 -1 1008 180 40 -12.3000 153.600 20 20 1004 1.00000 3 9 45 45 3 249
2013117S10155 2013 18 SP EA ZANE 2013-04-28 21:00:00 TS -12.4962 153.440 main 363 354 P_____P_______ SH232013 -12.4925 153.480 TD 30 1000 -1 1009 180 40 -12.5000 153.400 20 22 1004 4 242
2013117S10155 2013 18 SP EA ZANE 2013-04-29 00:00:00 TS -12.6000 153.250 25 1004 bom main 361 344 O_____O_______ jtwc_sh SH232013 -12.5000 153.300 TD 30 1000 -1 1010 180 40 -12.7000 153.200 20 25 1004 1.50000 90 1010 3 9 45 45 4 244
2013117S10155 2013 18 SP EA ZANE 2013-04-29 03:00:00 TS -12.6812 153.051 main 351 335 P_____P_______ SH232013 -12.5051 153.015 TD 30 1000 -1 1010 180 40 -12.8573 153.087 20 25 1002 104 1009 5 246
2013117S10155 2013 18 SP EA ZANE 2013-04-29 06:00:00 TS -12.8000 152.800 25 1001 bom main 336 328 O_____O_______ jtwc_sh SH232013 -12.6000 152.700 TD 30 1000 -1 1010 180 40 -13.0000 152.900 20 25 1001 1.50000 1.50000 119 1008 3 9 45 45 6 238
2013117S10155 2013 18 SP EA ZANE 2013-04-29 09:00:00 TS -13.0174 152.491 main 332 328 P_____P_______ SH232013 -12.8848 152.480 TD 30 1000 -1 1010 180 40 -13.1501 152.503 20 27 1000 99 1009 8 237
2013117S10155 2013 18 SP EA ZANE 2013-04-29 12:00:00 TS -13.2500 152.100 30 1000 bom main 328 325 O_____O_______ jtwc_sh SH232013 -13.2000 152.200 TD 30 1000 -1 1010 180 40 -13.3000 152.000 20 30 1000 2.00000 2.00000 79 1010 9 45 45 9 245
2013117S10155 2013 18 SP EA ZANE 2013-04-29 15:00:00 TS -13.4151 151.611 main 328 322 P_____P_______ SH232013 -13.3726 151.730 TD 32 998 -1 1010 180 40 -13.4575 151.493 20 35 999 89 1010 10 253
2013117S10155 2013 18 SP EA ZANE 2013-04-29 18:00:00 TS -13.5500 151.100 40 998 bom main 322 322 O_____O_______ jtwc_sh SH232013 -13.5000 151.200 TS 35 996 0 1010 180 40 -13.6000 151.000 30 40 998 2.50000 2.50000 8 39 59 39 39 99 1010 3 5 55 55 10 254
2013117S10155 2013 18 SP EA ZANE 2013-04-29 21:00:00 TS -13.6749 150.656 main 337 335 P_____P_______ SH232013 -13.6499 150.735 TS 40 992 0 1009 165 35 -13.6999 150.577 30 45 995 7 39 59 39 39 109 1010 9 253
2013117S10155 2013 18 SP EA ZANE 2013-04-30 00:00:00 TS -13.8000 150.250 50 992 bom main 347 347 O_____O_______ jtwc_sh SH232013 -13.8000 150.300 TS 45 989 0 50 50 50 50 1008 150 30 -13.8000 150.200 30 50 992 3.00000 3.00000 7 39 59 39 39 119 1010 3 6 5 69 69 8 249
2013117S10155 2013 18 SP EA ZANE 2013-04-30 03:00:00 TS -13.9687 149.860 main 370 370 P_____P_______ SH232013 -13.9724 149.885 TS 50 985 0 45 50 50 45 15 15 15 15 1007 150 25 -13.9649 149.835 30 55 987 7 39 59 44 39 97 1009 8 248
2013117S10155 2013 18 SP EA ZANE 2013-04-30 06:00:00 TS -14.1000 149.500 60 983 bom main 388 388 O_____O_______ jtwc_sh SH232013 -14.1000 149.500 TS 55 982 0 40 50 50 40 30 30 30 30 1007 150 20 -14.1000 149.500 30 60 983 4.00000 4.00000 7 39 59 50 39 75 1008 3 6 5 84 84 7 257
2013117S10155 2013 18 SP EA ZANE 2013-04-30 09:00:00 TS -14.1224 149.167 main 395 395 P_____P_______ SH232013 -14.1224 149.135 TS 60 978 0 40 50 50 40 30 30 30 30 1008 147 20 -14.1224 149.200 30 62 982 7 34 59 54 34 142 1010 6 270
2013117S10155 2013 18 SP EA ZANE 2013-04-30 12:00:00 TS -14.1000 148.850 65 982 bom main 399 359 O_____O_______ jtwc_sh SH232013 -14.1000 148.800 TY 65 974 1 40 50 50 40 30 30 30 30 1009 145 20 -14.1000 148.900 40 65 982 4.50000 4.50000 7 30 59 59 30 210 1012 3 5 89 89 6 270
2013117S10155 2013 18 SP EA ZANE 2013-04-30 15:00:00 TS -14.1187 148.529 main 359 328 P_____P_______ SH232013 -14.1149 148.500 TY 62 976 0 40 50 50 40 30 30 30 30 1009 145 20 -14.1225 148.558 40 65 981 7 30 59 54 30 170 1011 6 270
2013117S10155 2013 18 SP EA ZANE 2013-04-30 18:00:00 TS -14.1000 148.200 65 981 bom main 328 301 O_____O_______ jtwc_sh SH232013 -14.1000 148.200 TS 60 978 0 40 50 50 40 30 30 30 30 1009 145 20 -14.1000 148.200 40 65 981 4.00000 4.50000 7 30 59 50 30 130 1010 3 3 5 75 89 89 7 281
2013117S10155 2013 18 SP EA ZANE 2013-04-30 21:00:00 TS -13.9899 147.872 main 301 267 P_____P_______ SH232013 -14.0224 147.873 TS 60 978 0 40 50 50 40 30 30 30 30 1009 147 22 -13.9573 147.872 40 60 984 7 30 54 50 30 110 1010 7 290
2013117S10155 2013 18 SP EA ZANE 2013-05-01 00:00:00 TS -13.8500 147.500 55 988 bom main 272 235 O_____O_______ jtwc_sh SH232013 -13.9000 147.500 TS 60 978 0 40 50 50 40 30 30 30 30 1009 150 25 -13.8000 147.500 30 55 988 3.50000 4.00000 8 30 50 50 30 90 1010 3 5 75 75 8 286
2013117S10155 2013 18 SP EA ZANE 2013-05-01 03:00:00 TS -13.7687 147.051 main 235 202 P_____P_______ SH232013 -13.7574 147.088 TS 55 981 0 40 50 50 40 1007 140 22 -13.7801 147.015 30 52 989 8 50 50 90 1009 9 282
2013117S10155 2013 18 SP EA ZANE 2013-05-01 06:00:00 TS -13.6500 146.550 50 990 bom main 209 184 O_____O_______ jtwc_sh SH232013 -13.6000 146.600 TS 50 985 0 40 50 50 40 1006 130 20 -13.7000 146.500 30 50 990 3.00000 3.50000 8 50 50 15 90 1008 3 5 69 69 10 289
2013117S10155 2013 18 SP EA ZANE 2013-05-01 09:00:00 TS -13.4374 146.033 main 187 163 P_____P_______ SH232013 -13.4876 146.008 TS 42 990 0 40 50 50 40 1006 120 20 -13.3873 146.057 30 42 994 8 50 50 84 1008 11 296
2013117S10155 2013 18 SP EA ZANE 2013-05-01 12:00:00 TS -13.1500 145.500 35 999 bom main 172 163 O_____O_______ jtwc_sh SH232013 -13.3000 145.400 TS 35 996 0 40 50 50 40 1006 110 20 -13.0000 145.600 21 35 999 2.50000 3.00000 8 50 50 79 1008 3 5 49 49 12 302
2013117S10155 2013 18 SP EA ZANE 2013-05-01 15:00:00 TS -12.8184 145.013 main 163 117 P_____P_______ SH232013 -12.9371 144.915 TS 30 1000 -1 1007 125 30 -12.6996 145.110 21 32 1000 89 1009 12 304
2013117S10155 2013 18 SP EA ZANE 2013-05-01 18:00:00 TS -12.4500 144.450 30 1002 bom main 121 66 O_____O_______ jtwc_sh SH232013 -12.5000 144.400 TD 25 1004 -1 1008 140 40 -12.4000 144.500 20 30 1002 2.00000 2.50000 99 1010 3 9 45 45 15 301
2013117S10155 2013 18 SP EA ZANE 2013-05-01 21:00:00 TS -12.0757 143.724 main 55 0 P_____P_______ SH232013 -12.0881 143.745 TD 22 1005 -1 1008 140 40 -12.0633 143.704 20 27 1002 1010 17 296
2013117S10155 2013 18 SP EA ZANE 2013-05-02 00:00:00 NR -11.7000 142.900 25 1003 bom main 0 O_____O_______ jtwc_sh SH232013 -11.7000 143.000 DB 20 1007 -3 1008 140 40 -11.7000 142.800 20 25 1003 1.50000 2.00000 1010 3 9 45 45 18 295

デジタル台風データ・検索

IBTrACS Databaseについて

本データベースは、米国NOAAが公開する1842年以降の世界の熱帯低気圧のベストトラックデータアーカイブInternational Best Track Archive for Climate Stewardship (IBTrACS)を、ウェブで閲覧しやすい形式に変換したものです。

最終更新日:2021-12-03